sensor_id;sensor_type;location;lat;lon;timestamp;pressure;altitude;pressure_sealevel;temperature;humidity
26563;BME280;14217;50.986;5.826;2023-10-19T00:00:54;98746.53;;;20.60;40.51
26563;BME280;14217;50.986;5.826;2023-10-19T00:05:58;98740.22;;;20.61;40.41
26563;BME280;14217;50.986;5.826;2023-10-19T00:11:00;98734.47;;;20.65;40.63
26563;BME280;14217;50.986;5.826;2023-10-19T00:16:12;98724.38;;;20.59;40.35
26563;BME280;14217;50.986;5.826;2023-10-19T00:21:19;98716.53;;;20.58;40.60
26563;BME280;14217;50.986;5.826;2023-10-19T00:26:25;98732.66;;;20.66;40.50
26563;BME280;14217;50.986;5.826;2023-10-19T00:31:28;98713.47;;;20.62;40.31
26563;BME280;14217;50.986;5.826;2023-10-19T00:36:31;98730.88;;;20.66;40.36
26563;BME280;14217;50.986;5.826;2023-10-19T00:41:33;98716.13;;;20.62;40.66
26563;BME280;14217;50.986;5.826;2023-10-19T00:46:36;98726.50;;;20.65;40.41
26563;BME280;14217;50.986;5.826;2023-10-19T00:51:47;98722.69;;;20.58;40.57
26563;BME280;14217;50.986;5.826;2023-10-19T00:57:12;98725.09;;;20.61;40.55
26563;BME280;14217;50.986;5.826;2023-10-19T01:02:15;98724.69;;;20.66;40.70
26563;BME280;14217;50.986;5.826;2023-10-19T01:07:31;98722.28;;;20.63;40.60
26563;BME280;14217;50.986;5.826;2023-10-19T01:12:35;98724.97;;;20.63;40.41
26563;BME280;14217;50.986;5.826;2023-10-19T01:17:48;98721.88;;;20.67;40.70
26563;BME280;14217;50.986;5.826;2023-10-19T01:23:04;98734.34;;;20.67;40.48
26563;BME280;14217;50.986;5.826;2023-10-19T01:28:13;98723.44;;;20.70;40.52
26563;BME280;14217;50.986;5.826;2023-10-19T01:33:19;98720.94;;;20.68;40.70
26563;BME280;14217;50.986;5.826;2023-10-19T01:38:22;98718.41;;;20.67;40.82
26563;BME280;14217;50.986;5.826;2023-10-19T01:43:24;98721.59;;;20.61;41.01
26563;BME280;14217;50.986;5.826;2023-10-19T01:48:27;98722.28;;;20.63;40.87
26563;BME280;14217;50.986;5.826;2023-10-19T01:53:36;98720.22;;;20.66;40.81
26563;BME280;14217;50.986;5.826;2023-10-19T01:58:43;98727.34;;;20.66;40.81
26563;BME280;14217;50.986;5.826;2023-10-19T02:03:45;98720.34;;;20.65;40.92
26563;BME280;14217;50.986;5.826;2023-10-19T02:08:50;98721.47;;;20.62;40.97
26563;BME280;14217;50.986;5.826;2023-10-19T02:13:56;98723.13;;;20.63;41.07
26563;BME280;14217;50.986;5.826;2023-10-19T02:19:06;98723.72;;;20.67;40.90
26563;BME280;14217;50.986;5.826;2023-10-19T02:24:10;98726.81;;;20.72;40.94
26563;BME280;14217;50.986;5.826;2023-10-19T02:29:18;98713.06;;;20.67;40.85
26563;BME280;14217;50.986;5.826;2023-10-19T02:34:20;98712.38;;;20.65;41.02
26563;BME280;14217;50.986;5.826;2023-10-19T02:39:24;98702.44;;;20.67;41.04
26563;BME280;14217;50.986;5.826;2023-10-19T02:44:30;98696.13;;;20.68;40.95
26563;BME280;14217;50.986;5.826;2023-10-19T02:49:33;98700.59;;;20.67;41.00
26563;BME280;14217;50.986;5.826;2023-10-19T02:54:40;98692.91;;;20.64;41.13
26563;BME280;14217;50.986;5.826;2023-10-19T02:59:42;98690.94;;;20.66;40.90
26563;BME280;14217;50.986;5.826;2023-10-19T03:04:44;98682.97;;;20.66;41.23
26563;BME280;14217;50.986;5.826;2023-10-19T03:09:48;98681.03;;;20.68;41.06
26563;BME280;14217;50.986;5.826;2023-10-19T03:14:51;98686.72;;;20.64;41.31
26563;BME280;14217;50.986;5.826;2023-10-19T03:19:53;98685.75;;;20.65;41.07
26563;BME280;14217;50.986;5.826;2023-10-19T03:24:56;98678.31;;;20.59;41.44
26563;BME280;14217;50.986;5.826;2023-10-19T03:30:16;98664.47;;;20.65;40.90
26563;BME280;14217;50.986;5.826;2023-10-19T03:35:19;98666.84;;;20.68;40.92
26563;BME280;14217;50.986;5.826;2023-10-19T03:40:23;98660.13;;;20.64;41.28
26563;BME280;14217;50.986;5.826;2023-10-19T03:45:44;98645.84;;;20.65;41.03
26563;BME280;14217;50.986;5.826;2023-10-19T03:50:54;98649.22;;;20.67;41.07
26563;BME280;14217;50.986;5.826;2023-10-19T03:55:58;98643.78;;;20.68;41.21
26563;BME280;14217;50.986;5.826;2023-10-19T04:01:00;98643.91;;;20.67;41.25
26563;BME280;14217;50.986;5.826;2023-10-19T04:06:03;98652.84;;;20.66;40.96
26563;BME280;14217;50.986;5.826;2023-10-19T04:11:07;98652.31;;;20.72;40.87
26563;BME280;14217;50.986;5.826;2023-10-19T04:16:23;98658.16;;;20.66;41.19
26563;BME280;14217;50.986;5.826;2023-10-19T04:21:25;98656.22;;;20.68;41.18
26563;BME280;14217;50.986;5.826;2023-10-19T04:26:27;98651.16;;;20.65;41.35
26563;BME280;14217;50.986;5.826;2023-10-19T04:31:30;98659.44;;;20.71;41.25
26563;BME280;14217;50.986;5.826;2023-10-19T04:36:33;98657.31;;;20.65;41.24
26563;BME280;14217;50.986;5.826;2023-10-19T04:41:35;98663.34;;;20.67;41.21
26563;BME280;14217;50.986;5.826;2023-10-19T04:46:37;98666.13;;;20.66;41.22
26563;BME280;14217;50.986;5.826;2023-10-19T04:51:40;98662.78;;;20.64;41.47
26563;BME280;14217;50.986;5.826;2023-10-19T04:56:42;98657.63;;;20.72;41.23
26563;BME280;14217;50.986;5.826;2023-10-19T05:01:44;98656.66;;;20.73;41.13
26563;BME280;14217;50.986;5.826;2023-10-19T05:06:46;98658.88;;;20.68;41.07
26563;BME280;14217;50.986;5.826;2023-10-19T05:11:48;98669.38;;;20.69;41.08
26563;BME280;14217;50.986;5.826;2023-10-19T05:16:53;98666.59;;;20.71;41.15
26563;BME280;14217;50.986;5.826;2023-10-19T05:21:55;98663.66;;;20.74;40.99
26563;BME280;14217;50.986;5.826;2023-10-19T05:26:57;98661.53;;;20.68;41.46
26563;BME280;14217;50.986;5.826;2023-10-19T05:32:00;98659.56;;;20.70;41.20
26563;BME280;14217;50.986;5.826;2023-10-19T05:37:04;98659.56;;;20.70;41.10
26563;BME280;14217;50.986;5.826;2023-10-19T05:42:07;98664.34;;;20.66;41.36
26563;BME280;14217;50.986;5.826;2023-10-19T05:47:09;98667.56;;;20.70;41.37
26563;BME280;14217;50.986;5.826;2023-10-19T05:52:11;98675.94;;;20.65;41.33
26563;BME280;14217;50.986;5.826;2023-10-19T05:57:13;98670.38;;;20.68;41.15
26563;BME280;14217;50.986;5.826;2023-10-19T06:02:15;98678.19;;;20.70;41.40
26563;BME280;14217;50.986;5.826;2023-10-19T06:07:17;98671.78;;;20.73;41.39
26563;BME280;14217;50.986;5.826;2023-10-19T06:12:19;98683.16;;;20.75;41.19
26563;BME280;14217;50.986;5.826;2023-10-19T06:17:21;98689.00;;;20.68;41.23
26563;BME280;14217;50.986;5.826;2023-10-19T06:22:23;98695.88;;;20.71;41.10
26563;BME280;14217;50.986;5.826;2023-10-19T06:27:26;98692.75;;;20.66;41.49
26563;BME280;14217;50.986;5.826;2023-10-19T06:32:28;98700.19;;;20.72;41.37
26563;BME280;14217;50.986;5.826;2023-10-19T06:37:32;98703.13;;;20.69;41.39
26563;BME280;14217;50.986;5.826;2023-10-19T06:42:34;98707.47;;;20.70;41.29
26563;BME280;14217;50.986;5.826;2023-10-19T06:47:37;98706.63;;;20.69;41.31
26563;BME280;14217;50.986;5.826;2023-10-19T06:52:39;98709.41;;;20.68;41.26
26563;BME280;14217;50.986;5.826;2023-10-19T06:57:43;98708.19;;;20.72;41.44
26563;BME280;14217;50.986;5.826;2023-10-19T07:02:49;98706.50;;;20.71;41.65
26563;BME280;14217;50.986;5.826;2023-10-19T07:07:55;98706.94;;;20.76;44.87
26563;BME280;14217;50.986;5.826;2023-10-19T07:12:58;98703.38;;;20.66;44.80
26563;BME280;14217;50.986;5.826;2023-10-19T07:18:00;98708.00;;;20.64;44.74
26563;BME280;14217;50.986;5.826;2023-10-19T07:23:03;98707.75;;;20.67;44.40
26563;BME280;14217;50.986;5.826;2023-10-19T07:28:12;98702.63;;;20.85;46.71
26563;BME280;14217;50.986;5.826;2023-10-19T07:33:14;98704.69;;;20.71;47.46
26563;BME280;14217;50.986;5.826;2023-10-19T07:38:20;98697.53;;;20.72;48.74
26563;BME280;14217;50.986;5.826;2023-10-19T07:43:23;98690.44;;;20.82;48.85
26563;BME280;14217;50.986;5.826;2023-10-19T07:48:27;98693.09;;;20.82;48.70
26563;BME280;14217;50.986;5.826;2023-10-19T07:53:29;98684.69;;;20.87;48.66
26563;BME280;14217;50.986;5.826;2023-10-19T07:58:32;98679.72;;;20.63;46.98
26563;BME280;14217;50.986;5.826;2023-10-19T08:03:34;98682.47;;;20.51;47.34
26563;BME280;14217;50.986;5.826;2023-10-19T08:08:37;98667.22;;;20.54;47.53
26563;BME280;14217;50.986;5.826;2023-10-19T08:13:39;98668.16;;;20.52;47.51
26563;BME280;14217;50.986;5.826;2023-10-19T08:18:42;98657.81;;;20.49;47.16
26563;BME280;14217;50.986;5.826;2023-10-19T08:23:45;98667.59;;;20.49;47.12
26563;BME280;14217;50.986;5.826;2023-10-19T08:28:48;98664.38;;;20.45;47.42
26563;BME280;14217;50.986;5.826;2023-10-19T08:33:51;98657.88;;;20.38;47.81
26563;BME280;14217;50.986;5.826;2023-10-19T08:38:53;98659.19;;;20.44;47.61
26563;BME280;14217;50.986;5.826;2023-10-19T08:43:56;98661.97;;;20.42;47.22
26563;BME280;14217;50.986;5.826;2023-10-19T08:48:58;98653.16;;;20.42;47.15
26563;BME280;14217;50.986;5.826;2023-10-19T08:54:01;98653.56;;;20.37;47.21
26563;BME280;14217;50.986;5.826;2023-10-19T08:59:04;98639.56;;;20.45;47.24
26563;BME280;14217;50.986;5.826;2023-10-19T09:04:07;98635.91;;;20.67;47.34
26563;BME280;14217;50.986;5.826;2023-10-19T09:09:13;98633.97;;;20.69;47.35
26563;BME280;14217;50.986;5.826;2023-10-19T09:14:34;98635.09;;;20.66;47.85
26563;BME280;14217;50.986;5.826;2023-10-19T09:19:46;98624.97;;;20.70;47.96
26563;BME280;14217;50.986;5.826;2023-10-19T09:24:49;98624.59;;;20.75;47.96
26563;BME280;14217;50.986;5.826;2023-10-19T09:29:51;98622.91;;;20.74;48.06
26563;BME280;14217;50.986;5.826;2023-10-19T09:34:53;98635.09;;;20.76;48.44
26563;BME280;14217;50.986;5.826;2023-10-19T09:39:57;98626.13;;;20.77;48.16
26563;BME280;14217;50.986;5.826;2023-10-19T09:45:03;98620.53;;;20.80;48.85
26563;BME280;14217;50.986;5.826;2023-10-19T09:50:07;98614.50;;;20.78;48.72
26563;BME280;14217;50.986;5.826;2023-10-19T09:55:24;98611.84;;;20.78;48.25
26563;BME280;14217;50.986;5.826;2023-10-19T10:00:30;98605.25;;;20.82;49.68
26563;BME280;14217;50.986;5.826;2023-10-19T10:10:45;98590.28;;;20.81;49.43
26563;BME280;14217;50.986;5.826;2023-10-19T10:15:48;98585.94;;;20.80;49.72
26563;BME280;14217;50.986;5.826;2023-10-19T10:21:14;98591.25;;;20.80;49.41
26563;BME280;14217;50.986;5.826;2023-10-19T10:26:20;98617.31;;;20.86;49.38
26563;BME280;14217;50.986;5.826;2023-10-19T10:31:25;98615.66;;;20.85;49.21
26563;BME280;14217;50.986;5.826;2023-10-19T10:36:57;98611.59;;;20.81;49.74
26563;BME280;14217;50.986;5.826;2023-10-19T10:42:03;98596.31;;;20.83;49.96
26563;BME280;14217;50.986;5.826;2023-10-19T10:47:10;98588.06;;;20.86;49.99
26563;BME280;14217;50.986;5.826;2023-10-19T10:52:36;98573.78;;;20.87;50.54
26563;BME280;14217;50.986;5.826;2023-10-19T10:57:37;98579.06;;;20.78;50.69
26563;BME280;14217;50.986;5.826;2023-10-19T11:02:39;98565.25;;;20.94;49.75
26563;BME280;14217;50.986;5.826;2023-10-19T11:08:08;98569.31;;;20.98;49.39
26563;BME280;14217;50.986;5.826;2023-10-19T11:13:23;98556.69;;;21.00;49.30
26563;BME280;14217;50.986;5.826;2023-10-19T11:18:39;98560.31;;;20.99;49.55
26563;BME280;14217;50.986;5.826;2023-10-19T11:28:44;98550.38;;;20.81;51.84
26563;BME280;14217;50.986;5.826;2023-10-19T11:33:54;98548.53;;;20.62;52.87
26563;BME280;14217;50.986;5.826;2023-10-19T11:39:00;98550.94;;;20.75;53.84
26563;BME280;14217;50.986;5.826;2023-10-19T11:44:02;98543.38;;;20.90;52.75
26563;BME280;14217;50.986;5.826;2023-10-19T11:49:04;98542.81;;;20.86;52.09
26563;BME280;14217;50.986;5.826;2023-10-19T11:54:06;98540.13;;;20.86;51.59
26563;BME280;14217;50.986;5.826;2023-10-19T11:59:08;98537.59;;;20.85;51.66
26563;BME280;14217;50.986;5.826;2023-10-19T12:04:10;98533.13;;;20.76;51.73
26563;BME280;14217;50.986;5.826;2023-10-19T12:09:12;98531.47;;;20.94;51.28
26563;BME280;14217;50.986;5.826;2023-10-19T12:14:17;98525.16;;;20.85;51.31
26563;BME280;14217;50.986;5.826;2023-10-19T12:19:20;98526.84;;;20.86;51.33
26563;BME280;14217;50.986;5.826;2023-10-19T12:24:22;98524.44;;;20.64;53.90
26563;BME280;14217;50.986;5.826;2023-10-19T12:29:25;98519.34;;;20.51;55.88
26563;BME280;14217;50.986;5.826;2023-10-19T12:34:27;98526.53;;;20.70;55.54
26563;BME280;14217;50.986;5.826;2023-10-19T12:39:33;98532.16;;;20.86;54.77
26563;BME280;14217;50.986;5.826;2023-10-19T12:44:40;98523.47;;;20.65;55.89
26563;BME280;14217;50.986;5.826;2023-10-19T12:49:46;98531.84;;;20.70;56.53
26563;BME280;14217;50.986;5.826;2023-10-19T12:54:48;98533.69;;;20.89;56.71
26563;BME280;14217;50.986;5.826;2023-10-19T12:59:53;98518.28;;;20.83;57.00
26563;BME280;14217;50.986;5.826;2023-10-19T13:04:55;98517.19;;;20.85;54.96
26563;BME280;14217;50.986;5.826;2023-10-19T13:09:57;98502.88;;;20.86;54.85
26563;BME280;14217;50.986;5.826;2023-10-19T13:14:59;98494.63;;;20.89;55.39
26563;BME280;14217;50.986;5.826;2023-10-19T13:20:01;98490.16;;;20.90;55.55
26563;BME280;14217;50.986;5.826;2023-10-19T13:25:17;98489.31;;;20.80;56.22
26563;BME280;14217;50.986;5.826;2023-10-19T13:30:19;98478.94;;;20.86;56.56
26563;BME280;14217;50.986;5.826;2023-10-19T13:35:21;98485.09;;;20.77;56.83
26563;BME280;14217;50.986;5.826;2023-10-19T13:40:26;98465.06;;;20.73;56.50
26563;BME280;14217;50.986;5.826;2023-10-19T13:45:36;98458.63;;;20.85;55.98
26563;BME280;14217;50.986;5.826;2023-10-19T13:50:46;98444.06;;;20.80;56.71
26563;BME280;14217;50.986;5.826;2023-10-19T13:55:50;98431.59;;;20.90;56.37
26563;BME280;14217;50.986;5.826;2023-10-19T14:00:52;98416.47;;;20.71;56.03
26563;BME280;14217;50.986;5.826;2023-10-19T14:05:54;98409.47;;;20.89;54.80
26563;BME280;14217;50.986;5.826;2023-10-19T14:11:02;98395.28;;;20.99;54.25
26563;BME280;14217;50.986;5.826;2023-10-19T14:16:08;98378.34;;;21.00;54.01
26563;BME280;14217;50.986;5.826;2023-10-19T14:21:15;98364.03;;;21.01;53.56
26563;BME280;14217;50.986;5.826;2023-10-19T14:26:17;98373.56;;;21.03;53.45
26563;BME280;14217;50.986;5.826;2023-10-19T14:31:19;98365.44;;;21.05;52.63
26563;BME280;14217;50.986;5.826;2023-10-19T14:36:22;98370.06;;;21.03;52.45
26563;BME280;14217;50.986;5.826;2023-10-19T14:41:24;98372.59;;;21.04;52.41
26563;BME280;14217;50.986;5.826;2023-10-19T14:46:26;98361.06;;;21.04;51.98
26563;BME280;14217;50.986;5.826;2023-10-19T14:51:31;98345.09;;;21.04;51.78
26563;BME280;14217;50.986;5.826;2023-10-19T14:56:33;98344.13;;;21.05;52.13
26563;BME280;14217;50.986;5.826;2023-10-19T15:01:35;98334.13;;;20.79;53.01
26563;BME280;14217;50.986;5.826;2023-10-19T15:06:37;98321.16;;;21.04;52.29
26563;BME280;14217;50.986;5.826;2023-10-19T15:11:40;98311.41;;;20.85;52.72
26563;BME280;14217;50.986;5.826;2023-10-19T15:16:42;98315.63;;;20.78;53.11
26563;BME280;14217;50.986;5.826;2023-10-19T15:21:45;98324.22;;;20.62;53.85
26563;BME280;14217;50.986;5.826;2023-10-19T15:26:47;98322.09;;;20.75;53.21
26563;BME280;14217;50.986;5.826;2023-10-19T15:31:49;98306.69;;;20.79;53.27
26563;BME280;14217;50.986;5.826;2023-10-19T15:36:52;98294.06;;;20.81;53.07
26563;BME280;14217;50.986;5.826;2023-10-19T15:41:54;98300.81;;;20.75;53.07
26563;BME280;14217;50.986;5.826;2023-10-19T15:46:58;98302.88;;;20.81;53.11
26563;BME280;14217;50.986;5.826;2023-10-19T15:52:00;98301.50;;;20.77;52.82
26563;BME280;14217;50.986;5.826;2023-10-19T15:57:02;98293.56;;;20.58;54.75
26563;BME280;14217;50.986;5.826;2023-10-19T16:02:04;98306.03;;;20.47;55.81
26563;BME280;14217;50.986;5.826;2023-10-19T16:07:07;98303.59;;;20.74;54.36
26563;BME280;14217;50.986;5.826;2023-10-19T16:12:10;98298.25;;;20.83;53.50
26563;BME280;14217;50.986;5.826;2023-10-19T16:17:13;98295.13;;;20.98;52.54
26563;BME280;14217;50.986;5.826;2023-10-19T16:22:15;98294.63;;;21.12;51.89
26563;BME280;14217;50.986;5.826;2023-10-19T16:27:17;98285.59;;;20.95;52.37
26563;BME280;14217;50.986;5.826;2023-10-19T16:32:19;98283.97;;;20.84;53.14
26563;BME280;14217;50.986;5.826;2023-10-19T16:37:23;98274.22;;;21.03;52.57
26563;BME280;14217;50.986;5.826;2023-10-19T16:42:26;98272.94;;;21.07;52.99
26563;BME280;14217;50.986;5.826;2023-10-19T16:47:28;98244.06;;;21.12;52.85
26563;BME280;14217;50.986;5.826;2023-10-19T16:52:30;98243.56;;;20.99;52.83
26563;BME280;14217;50.986;5.826;2023-10-19T16:57:33;98231.84;;;20.91;53.17
26563;BME280;14217;50.986;5.826;2023-10-19T17:02:35;98250.41;;;21.01;52.84
26563;BME280;14217;50.986;5.826;2023-10-19T17:07:37;98288.44;;;20.94;52.70
26563;BME280;14217;50.986;5.826;2023-10-19T17:12:39;98294.38;;;21.05;52.21
26563;BME280;14217;50.986;5.826;2023-10-19T17:17:42;98295.28;;;20.96;53.40
26563;BME280;14217;50.986;5.826;2023-10-19T17:22:45;98278.72;;;21.02;54.03
26563;BME280;14217;50.986;5.826;2023-10-19T17:27:47;98287.31;;;20.86;54.54
26563;BME280;14217;50.986;5.826;2023-10-19T17:32:49;98276.41;;;20.89;54.73
26563;BME280;14217;50.986;5.826;2023-10-19T17:37:56;98283.50;;;20.99;53.79
26563;BME280;14217;50.986;5.826;2023-10-19T17:42:59;98263.03;;;20.99;53.79
26563;BME280;14217;50.986;5.826;2023-10-19T17:48:02;98264.19;;;20.87;53.79
26563;BME280;14217;50.986;5.826;2023-10-19T17:53:05;98257.31;;;20.94;53.38
26563;BME280;14217;50.986;5.826;2023-10-19T17:58:08;98246.00;;;20.82;53.51
26563;BME280;14217;50.986;5.826;2023-10-19T18:03:11;98239.84;;;20.91;53.71
26563;BME280;14217;50.986;5.826;2023-10-19T18:08:14;98238.72;;;21.12;53.04
26563;BME280;14217;50.986;5.826;2023-10-19T18:13:16;98222.75;;;21.12;52.56
26563;BME280;14217;50.986;5.826;2023-10-19T18:18:18;98232.88;;;21.08;52.52
26563;BME280;14217;50.986;5.826;2023-10-19T18:23:21;98225.59;;;21.10;52.30
26563;BME280;14217;50.986;5.826;2023-10-19T18:28:23;98208.34;;;21.15;51.82
26563;BME280;14217;50.986;5.826;2023-10-19T18:33:26;98199.25;;;21.07;52.29
26563;BME280;14217;50.986;5.826;2023-10-19T18:38:33;98189.53;;;21.16;51.81
26563;BME280;14217;50.986;5.826;2023-10-19T18:43:36;98175.25;;;21.17;51.47
26563;BME280;14217;50.986;5.826;2023-10-19T18:48:38;98174.00;;;21.11;51.72
26563;BME280;14217;50.986;5.826;2023-10-19T18:53:40;98173.56;;;21.16;51.15
26563;BME280;14217;50.986;5.826;2023-10-19T18:58:42;98171.88;;;21.15;51.03
26563;BME280;14217;50.986;5.826;2023-10-19T19:03:47;98171.88;;;21.15;50.83
26563;BME280;14217;50.986;5.826;2023-10-19T19:08:50;98176.38;;;21.15;50.67
26563;BME280;14217;50.986;5.826;2023-10-19T19:13:52;98182.41;;;21.17;50.72
26563;BME280;14217;50.986;5.826;2023-10-19T19:18:54;98188.00;;;21.14;50.59
26563;BME280;14217;50.986;5.826;2023-10-19T19:23:56;98181.84;;;21.13;50.88
26563;BME280;14217;50.986;5.826;2023-10-19T19:28:59;98177.91;;;21.17;50.77
26563;BME280;14217;50.986;5.826;2023-10-19T19:34:01;98173.03;;;21.13;50.78
26563;BME280;14217;50.986;5.826;2023-10-19T19:39:04;98170.88;;;21.16;50.72
26563;BME280;14217;50.986;5.826;2023-10-19T19:44:09;98180.56;;;21.17;50.38
26563;BME280;14217;50.986;5.826;2023-10-19T19:49:11;98173.72;;;21.15;50.26
26563;BME280;14217;50.986;5.826;2023-10-19T19:54:16;98182.41;;;21.17;49.93
26563;BME280;14217;50.986;5.826;2023-10-19T19:59:18;98165.41;;;21.18;50.01
26563;BME280;14217;50.986;5.826;2023-10-19T20:04:20;98165.72;;;21.15;49.94
26563;BME280;14217;50.986;5.826;2023-10-19T20:09:26;98155.78;;;21.17;49.88
26563;BME280;14217;50.986;5.826;2023-10-19T20:14:28;98150.59;;;21.15;50.00
26563;BME280;14217;50.986;5.826;2023-10-19T20:19:30;98139.13;;;21.15;49.87
26563;BME280;14217;50.986;5.826;2023-10-19T20:24:32;98131.97;;;21.15;49.43
26563;BME280;14217;50.986;5.826;2023-10-19T20:29:35;98115.66;;;21.18;49.51
26563;BME280;14217;50.986;5.826;2023-10-19T20:34:37;98096.53;;;21.15;49.49
26563;BME280;14217;50.986;5.826;2023-10-19T20:39:38;98096.06;;;21.19;50.41
26563;BME280;14217;50.986;5.826;2023-10-19T20:44:41;98127.13;;;21.19;50.41
26563;BME280;14217;50.986;5.826;2023-10-19T20:49:42;98121.53;;;21.22;50.52
26563;BME280;14217;50.986;5.826;2023-10-19T20:54:46;98094.06;;;21.21;50.67
26563;BME280;14217;50.986;5.826;2023-10-19T20:59:48;98085.69;;;21.16;50.58
26563;BME280;14217;50.986;5.826;2023-10-19T21:04:50;98078.72;;;21.15;50.87
26563;BME280;14217;50.986;5.826;2023-10-19T21:09:52;98073.75;;;21.20;51.11
26563;BME280;14217;50.986;5.826;2023-10-19T21:14:55;98053.97;;;21.23;51.20
26563;BME280;14217;50.986;5.826;2023-10-19T21:19:57;98047.44;;;21.17;51.16
26563;BME280;14217;50.986;5.826;2023-10-19T21:24:59;98042.25;;;21.16;50.72
26563;BME280;14217;50.986;5.826;2023-10-19T21:30:02;98031.47;;;21.17;50.83
26563;BME280;14217;50.986;5.826;2023-10-19T21:35:04;98023.78;;;21.14;50.49
26563;BME280;14217;50.986;5.826;2023-10-19T21:40:07;98006.00;;;21.15;50.37
26563;BME280;14217;50.986;5.826;2023-10-19T21:45:10;97991.00;;;21.14;50.12
26563;BME280;14217;50.986;5.826;2023-10-19T21:50:12;97998.00;;;21.15;49.83
26563;BME280;14217;50.986;5.826;2023-10-19T21:55:15;97993.81;;;21.12;49.58
26563;BME280;14217;50.986;5.826;2023-10-19T22:00:18;97986.97;;;21.09;49.71
26563;BME280;14217;50.986;5.826;2023-10-19T22:05:31;97977.00;;;21.11;49.70
26563;BME280;14217;50.986;5.826;2023-10-19T22:10:33;97968.56;;;21.16;49.43
26563;BME280;14217;50.986;5.826;2023-10-19T22:15:36;97965.88;;;21.16;49.09
26563;BME280;14217;50.986;5.826;2023-10-19T22:20:39;97985.38;;;21.17;49.00
26563;BME280;14217;50.986;5.826;2023-10-19T22:25:41;97966.91;;;21.15;48.79
26563;BME280;14217;50.986;5.826;2023-10-19T22:30:43;97955.25;;;21.16;48.88
26563;BME280;14217;50.986;5.826;2023-10-19T22:35:48;97952.91;;;21.13;48.92
26563;BME280;14217;50.986;5.826;2023-10-19T22:40:51;97947.44;;;21.15;48.84
26563;BME280;14217;50.986;5.826;2023-10-19T22:45:52;97963.56;;;21.13;48.58
26563;BME280;14217;50.986;5.826;2023-10-19T22:50:57;97972.84;;;21.09;48.72
26563;BME280;14217;50.986;5.826;2023-10-19T22:55:59;97978.00;;;21.10;48.59
26563;BME280;14217;50.986;5.826;2023-10-19T23:01:03;97959.75;;;21.16;48.19
26563;BME280;14217;50.986;5.826;2023-10-19T23:06:05;97951.06;;;21.14;48.18
26563;BME280;14217;50.986;5.826;2023-10-19T23:11:11;97960.56;;;21.16;48.12
26563;BME280;14217;50.986;5.826;2023-10-19T23:16:18;97947.78;;;21.20;48.08
26563;BME280;14217;50.986;5.826;2023-10-19T23:21:23;97938.91;;;21.11;48.30
26563;BME280;14217;50.986;5.826;2023-10-19T23:26:28;97924.31;;;21.15;48.10
26563;BME280;14217;50.986;5.826;2023-10-19T23:31:31;97915.63;;;21.13;47.82
26563;BME280;14217;50.986;5.826;2023-10-19T23:36:35;97897.69;;;21.15;47.72
26563;BME280;14217;50.986;5.826;2023-10-19T23:41:40;97907.66;;;21.13;47.96
26563;BME280;14217;50.986;5.826;2023-10-19T23:46:43;97920.81;;;21.15;47.70
26563;BME280;14217;50.986;5.826;2023-10-19T23:51:45;97905.97;;;21.12;47.88
26563;BME280;14217;50.986;5.826;2023-10-19T23:56:47;97888.34;;;21.11;47.72
